Radiosonde details



Informationen :

Serial : Y1722399
Type : Vaisala RS41-SG
Date of production : 21.04.2026
Frequency : 405.5MHz
Launchsite : -
Nearest town : Grantham, GB (1km)

Altitude (Max) : 29914m at 2026-08-31 06:56:08
Speed (Max) : 56km/h at altitude 18898m

Average speed : 18km/h
Average ascent rate : 6m/s
Average descent rate : -16m/s
Ascent rate (Max) : 7.4m/s
Descent rate (Max): -39.9m/s

First frame :
DM0DOS-11 at 2026-08-31 06:22:43 at altitude 18738m (OG: 18596m)
Last frame :
DM0DOS-11 at 2026-08-31 07:08:30 at altitude 18898m (OG: 18794m)

Flighttime : 45m47s
Ascent time : 33m25s
Descent time : 12m22s
Uptime : 2h19m17s
Killtimer : 8h18m11s

Distance (Straight line distance): 7km

Distance (Route):


Frames : 382


Measurement :

Temperature : -49.8°C
Humidity : 3.1%
Pressure : 0hPa


Vertical profile (SkewT) :


Elevation profile :



Receiving stations :


Receiver Frames First received Last received
DM0DOS-11 196 2026-08-31 06:22:43 2026-08-31 07:08:30
DJ2DS-15 81 2026-08-31 06:30:09 2026-08-31 07:05:36
BIOWL1-15 73 2026-08-31 06:34:36 2026-08-31 07:04:05
DB0UT-7 21 2026-08-31 06:35:38 2026-08-31 07:01:25
BIOWL9-15 11 2026-08-31 06:42:48 2026-08-31 07:04:00

Share per receiver :



All frames :


Receiver Date Latitude Longitude Direction Speed Altitude Climb Temperature Humidity Pressure Voltage Killtimer Uptime BKT XDATA
DM0DOS-112026-08-31 07:08:3052.91946-0.6478768°55km/h18898m-9.2m/s-49.8°C3.1%0hPa2.5V08:18:1102:19:1700:00:00
DM0DOS-112026-08-31 07:08:2352.91889-0.6490637°13km/h18996m-9.9m/s-49.8°C3.1%0hPa2.5V08:18:2102:19:0700:00:00
DM0DOS-112026-08-31 07:08:1052.91909-0.64982107°40km/h19094m-10.2m/s-50.1°C3.2%0hPa2.5V08:18:3102:18:5700:00:00
DM0DOS-112026-08-31 07:08:0352.91880-0.6514439°33km/h19193m-10.1m/s-50.2°C3.2%0hPa2.5V08:18:4102:18:4700:00:00
DM0DOS-112026-08-31 07:07:5352.91860-0.65173136°16km/h19294m-9.8m/s-50.1°C3.2%0hPa2.5V08:18:5102:18:3700:00:00
DM0DOS-112026-08-31 07:07:4052.91857-0.6528650°31km/h19392m-10.4m/s-49.5°C3%0hPa2.6V08:19:0102:18:2700:00:00
DM0DOS-112026-08-31 07:07:3352.91800-0.65295302°15km/h19494m-9.7m/s-49.9°C3.1%0hPa2.5V08:19:1102:18:1700:00:00
DM0DOS-112026-08-31 07:07:2052.91817-0.65309106°27km/h19594m-9.9m/s-50.5°C3.2%0hPa2.5V08:19:2102:18:0700:00:00
DM0DOS-112026-08-31 07:07:1352.91782-0.6543628°33km/h19695m-10.3m/s-50.7°C3.2%0hPa2.6V08:19:3102:17:5700:00:00
DM0DOS-112026-08-31 07:05:5552.91535-0.65857343°26km/h20485m-11.2m/s-51.8°C3.6%0hPa2.6V08:20:4702:16:4100:00:00
DM0DOS-112026-08-31 07:05:4452.91528-0.65887100°29km/h20593m-10.4m/s-50.9°C3.3%0hPa2.6V08:20:5702:16:3100:00:00
DM0DOS-112026-08-31 07:05:3752.91488-0.6601224°29km/h20699m-11.4m/s-51°C3.4%0hPa2.6V08:21:0702:16:2100:00:00
DJ2DS-152026-08-31 07:05:3652.91509-0.6598747°38km/h20667m-10.6m/s-50.9°C0.8%-1.0hPa2.6V00:00:0000:00:0000:00:00
DM0DOS-112026-08-31 07:05:2452.91473-0.65998164°20km/h20807m-10.8m/s-50.8°C3.3%0hPa2.6V08:21:1702:16:1100:00:00
DM0DOS-112026-08-31 07:05:1752.91474-0.6609337°33km/h20914m-11.1m/s-50.9°C3.3%0hPa2.6V08:21:2702:16:0100:00:00
DM0DOS-112026-08-31 07:05:0452.91406-0.66062290°31km/h21027m-10.7m/s-51°C3.3%0hPa2.6V08:21:3702:15:5100:00:00
DJ2DS-152026-08-31 07:05:0052.91403-0.66039267°22km/h21047m-10.1m/s-51.1°C0.8%-1.0hPa2.6V00:00:0000:00:0000:00:00
DM0DOS-112026-08-31 07:04:5752.91405-0.6603056°20km/h21135m-11.5m/s-51.1°C3.3%0hPa2.6V08:21:4702:15:4100:00:00
DM0DOS-112026-08-31 07:04:4452.91310-0.66085352°51km/h21245m-10.9m/s-51.4°C3.4%0hPa2.6V08:21:5702:15:3100:00:00
DM0DOS-112026-08-31 07:04:3452.91248-0.6604075°9km/h21359m-11.8m/s-51.4°C3.4%0hPa2.6V08:22:0702:15:2100:00:00
DM0DOS-112026-08-31 07:04:2452.91204-0.6616733°49km/h21472m-11.6m/s-51.6°C3.5%0hPa2.6V08:22:1702:15:1100:00:00
DJ2DS-152026-08-31 07:04:2452.91214-0.6615441°49km/h21461m-11.2m/s-51.5°C0.9%-1.0hPa2.6V00:00:0000:00:0000:00:00
DM0DOS-112026-08-31 07:04:1752.91121-0.66165301°20km/h21589m-11.4m/s-51.5°C3.4%0hPa2.6V08:22:2702:15:0100:00:00
BIOWL1-152026-08-31 07:04:0552.91131-0.66169108°26km/h21671m-12.2m/s-51.3°C0.1%0hPa2.6V08:23:1002:14:5400:00:00
DM0DOS-112026-08-31 07:04:0452.91132-0.6622679°42km/h21718m-12m/s-51.5°C3.5%0hPa2.6V08:22:3802:14:5000:00:00
BIOWL9-152026-08-31 07:04:0052.91129-0.6624469°44km/h21730m-11.5m/s-51.6°C0.9%-1.0hPa2.6V00:00:0000:00:0000:00:00
DJ2DS-152026-08-31 07:03:5752.91111-0.6628842°27km/h21764m-11.2m/s-51.7°C3.5%0hPa2.6V00:00:0002:14:4600:00:00
DM0DOS-112026-08-31 07:03:5452.91073-0.66314344°11km/h21837m-12.7m/s-51.9°C3.5%0hPa2.6V08:22:4802:14:4000:00:00
BIOWL1-152026-08-31 07:03:5452.91088-0.6631116°29km/h21799m-12.2m/s-51.9°C0.3%0hPa2.6V08:23:1002:14:4300:00:00
DJ2DS-152026-08-31 07:03:4852.91075-0.66305194°16km/h21886m-12.5m/s-51.9°C0.9%-1.0hPa2.6V00:00:0000:00:0000:00:00
DM0DOS-112026-08-31 07:03:4552.91119-0.66352107°37km/h21967m-12.4m/s-51.7°C3.5%0hPa2.6V08:22:5902:14:2900:00:00
BIOWL1-152026-08-31 07:03:4352.91102-0.66315146°37km/h21932m-11.1m/s-51.8°C0.2%0hPa2.6V08:23:1002:14:3200:00:00
BIOWL1-152026-08-31 07:03:3852.91082-0.66432334°18km/h22089m-13m/s-51.4°C0.2%0hPa2.6V08:23:1002:14:1900:00:00
DJ2DS-152026-08-31 07:03:3752.91120-0.6639677°24km/h22005m-12.3m/s-51.6°C3.5%0hPa2.6V00:00:0002:14:2600:00:00
DM0DOS-112026-08-31 07:03:3452.91082-0.66432334°18km/h22089m-13m/s-51.4°C3.4%0hPa2.6V08:23:0902:14:1900:00:00
BIOWL9-152026-08-31 07:03:2952.91079-0.66428311°16km/h22102m-12.4m/s-51.5°C0.9%-1.0hPa2.6V00:00:0000:00:0000:00:00
DM0DOS-112026-08-31 07:03:2552.91108-0.66402136°24km/h22207m-12.6m/s-51.4°C3.4%0hPa2.6V08:23:1902:14:0900:00:00
BIOWL1-152026-08-31 07:03:2152.91103-0.66397154°26km/h22195m-12.2m/s-51.4°C0.2%0hPa2.6V18:12:1502:14:1000:00:00
BIOWL1-152026-08-31 07:03:1152.91078-0.6647437km/h22320m-12.7m/s-51.8°C0.2%0hPa2.6V18:12:1502:14:0000:00:00
DM0DOS-112026-08-31 07:03:0952.91039-0.66459330°40km/h22370m-12.3m/s-52.2°C3.6%0hPa2.7V08:23:3202:13:5600:00:00
BIOWL1-152026-08-31 07:03:0152.91018-0.66394250°16km/h22444m-12.8m/s-52.2°C0.3%0hPa2.6V18:12:1502:13:5000:00:00
DM0DOS-112026-08-31 07:02:5952.91027-0.66394119°16km/h22494m-13.1m/s-52.1°C3.6%0hPa2.6V08:23:4202:13:4600:00:00
BIOWL1-152026-08-31 07:02:5152.91014-0.6646242°42km/h22572m-12.8m/s-51.8°C0.3%0hPa2.6V18:12:1502:13:4000:00:00
DM0DOS-112026-08-31 07:02:4952.90974-0.66486358°40km/h22620m-12.3m/s-51.8°C3.5%0hPa2.6V08:23:5202:13:3600:00:00
BIOWL1-152026-08-31 07:02:4052.90940-0.66453238°9km/h22709m-13.8m/s0°C0%0hPa2.6V18:12:1502:13:2900:00:00
DJ2DS-152026-08-31 07:02:3752.90949-0.66455154°31km/h22750m-13.1m/s-51.8°C3.6%0hPa2.6V00:00:0002:13:2600:00:00
DJ2DS-152026-08-31 07:02:3652.90958-0.66469124°29km/h22775m-12.5m/s-51.9°C0.9%-1.0hPa2.6V00:00:0000:00:0000:00:00
BIOWL9-152026-08-31 07:02:2752.90947-0.6658129°31km/h22876m-13.3m/s-51.6°C0.9%-1.0hPa2.6V00:00:0000:00:0000:00:00
DM0DOS-112026-08-31 07:02:2552.90914-0.66561286°29km/h22955m-13.8m/s-51.5°C3.5%0hPa2.6V08:24:1802:13:1000:00:00
DJ2DS-152026-08-31 07:02:1752.90921-0.66512229°27km/h23009m-12.9m/s-51.5°C3.5%0hPa2.6V00:00:0002:13:0600:00:00
DJ2DS-152026-08-31 07:01:5752.90893-0.66517273°29km/h23264m-13.1m/s-51.9°C3.6%0hPa2.6V00:00:0002:12:4600:00:00
DJ2DS-152026-08-31 07:01:3752.90863-0.66642337°31km/h23535m-13.4m/s-51.7°C3.6%0hPa2.6V00:00:0002:12:2600:00:00
DM0DOS-112026-08-31 07:01:2652.90873-0.6665856°38km/h23752m-14.5m/s-51.3°C3.4%0hPa2.6V08:25:1802:12:1000:00:00
DB0UT-72026-08-31 07:01:2552.90879-0.66604108°33km/h23696m-14.3m/s-51.2°C3.4%0hPa2.6V00:00:0000:00:0000:00:00
DJ2DS-152026-08-31 07:01:1752.90840-0.6670116°35km/h23808m-13.4m/s-51.3°C3.4%0hPa2.6V00:00:0002:12:0600:00:00
DM0DOS-112026-08-31 07:01:1552.90788-0.66682304°27km/h23889m-14.1m/s-51.8°C3.5%0hPa2.6V08:25:2802:12:0000:00:00
DM0DOS-112026-08-31 07:01:0352.90813-0.66671116°35km/h24030m-15m/s-51.8°C3.4%0hPa2.7V08:25:3802:11:5000:00:00
DM0DOS-112026-08-31 07:00:5652.90775-0.66775343°29km/h24173m-14.4m/s-52°C3.5%0hPa2.7V08:25:4802:11:4000:00:00
DB0UT-72026-08-31 07:00:5552.90805-0.6675843°31km/h24116m-15.1m/s-51.8°C3.4%0hPa2.7V00:00:0002:11:4400:00:00
DM0DOS-112026-08-31 07:00:4552.90797-0.66714171°37km/h24318m-15.7m/s-52.7°C3.7%0hPa2.6V08:25:5802:11:3000:00:00
DJ2DS-152026-08-31 07:00:3552.90824-0.6676476°31km/h24409m-15.9m/s-52.7°C3.8%0hPa2.6V00:00:0002:11:2400:00:00
DM0DOS-112026-08-31 07:00:3452.90802-0.66784349°33km/h24469m-15m/s-52.8°C3.8%0hPa2.6V08:26:0802:11:2000:00:00
BIOWL1-152026-08-31 07:00:2752.90774-0.66747299°38km/h24529m-15.6m/s0°C0%0hPa2.7V18:12:1502:11:1600:00:00
DM0DOS-112026-08-31 07:00:2452.90781-0.66684189°24km/h24620m-15.8m/s-52.5°C3.8%0hPa2.7V08:26:1802:11:1000:00:00
BIOWL1-152026-08-31 07:00:1652.90816-0.66732105°40km/h24711m-15.8m/s0°C0%0hPa2.7V18:12:1502:11:0400:00:00
DJ2DS-152026-08-31 07:00:1552.90816-0.66732105°35km/h24711m-15.8m/s-51.8°C3.6%0hPa2.6V00:00:0002:11:0400:00:00
DM0DOS-112026-08-31 07:00:1452.90808-0.6678947°33km/h24771m-15.5m/s-52°C3.6%0hPa2.6V08:26:2802:11:0000:00:00
DJ2DS-152026-08-31 07:00:1252.90809-0.6678947°31km/h24771m-15.5m/s-52.0°C0.9%-1.0hPa2.6V00:00:0000:00:0000:00:00
DM0DOS-112026-08-31 07:00:0252.90757-0.66736254°37km/h24924m-15.4m/s-51.7°C3.6%0hPa2.6V08:26:3802:10:5000:00:00
DM0DOS-112026-08-31 06:59:5652.90807-0.6675383°37km/h25080m-16.5m/s-51.4°C3.6%0hPa2.7V08:26:4802:10:4000:00:00
BIOWL9-152026-08-31 06:59:5252.90804-0.6676766°37km/h25096m-14.7m/s-51.3°C-1.0%-1.0hPa2.6V00:00:0000:00:0000:00:00
DM0DOS-112026-08-31 06:59:4452.90747-0.66752269°35km/h25237m-16.6m/s-50.8°C3.5%0hPa2.6V08:26:5802:10:3000:00:00
DJ2DS-152026-08-31 06:59:3552.90781-0.66689183°31km/h25329m-15.2m/s-50.7°C3.4%0hPa2.7V00:00:0002:10:2400:00:00
DM0DOS-112026-08-31 06:59:2952.90795-0.6674837°31km/h25440m-16.1m/s-50.3°C3.4%0hPa2.7V08:27:1102:10:1700:00:00
DM0DOS-112026-08-31 06:59:1952.90740-0.66689251°26km/h25593m-16.7m/s-49.8°C3.3%0hPa2.6V08:27:2102:10:0700:00:00
DJ2DS-152026-08-31 06:59:1552.90750-0.66669200°31km/h25641m-15.5m/s-49.5°C3.2%0hPa2.7V00:00:0002:10:0400:00:00
DM0DOS-112026-08-31 06:59:0952.90764-0.6672873°37km/h25752m-17.2m/s-49.4°C3.2%0hPa2.7V08:27:3102:09:5700:00:00
DJ2DS-152026-08-31 06:59:0052.90699-0.66779335°35km/h25896m-16.3m/s-49.4°C0.7%-1.0hPa2.6V00:00:0000:00:0000:00:00
BIOWL9-152026-08-31 06:58:5052.90711-0.66716149°29km/h26089m-16.7m/s-49.5°C-1.0%-1.0hPa2.6V00:00:0000:00:0000:00:00
DM0DOS-112026-08-31 06:58:4952.90705-0.66711161°26km/h26073m-16.6m/s-49.6°C3.3%0hPa2.6V08:27:5102:09:3700:00:00
BIOWL1-152026-08-31 06:58:4352.90727-0.6676198°38km/h26153m-17.1m/s-49°C0.1%0hPa2.6V08:29:5802:09:3200:00:00
DM0DOS-112026-08-31 06:58:3952.90713-0.6683042°35km/h26236m-16.8m/s-48.9°C3.2%0hPa2.7V08:28:0102:09:2700:00:00
BIOWL1-152026-08-31 06:58:3452.90672-0.66832314°26km/h26336m-17.2m/s-48.9°C0.1%0hPa2.7V08:29:5802:09:2100:00:00
DM0DOS-112026-08-31 06:58:3152.90669-0.66793241°27km/h26403m-16.8m/s-49°C3.2%0hPa2.7V08:28:1102:09:1700:00:00
DB0UT-72026-08-31 06:58:3152.90668-0.66824291°38km/h26353m-16.5m/s-48.8°C3.1%0hPa2.6V00:00:0002:09:2000:00:00
DJ2DS-152026-08-31 06:58:2352.90700-0.66779156°35km/h26486m-16.8m/s-48.8°C0.7%-1.0hPa2.6V00:00:0000:00:0000:00:00
DM0DOS-112026-08-31 06:58:1952.90728-0.6684396°42km/h26570m-16.8m/s-48.6°C3.1%0hPa2.6V08:28:2102:09:0700:00:00
DJ2DS-152026-08-31 06:58:1552.90722-0.6689559°31km/h26622m-17.2m/s-48.6°C3.1%0hPa2.7V00:00:0002:09:0400:00:00
DM0DOS-112026-08-31 06:58:0952.90670-0.66920322°31km/h26745m-17.7m/s-48.7°C3.1%0hPa2.7V08:28:3102:08:5700:00:00
DM0DOS-112026-08-31 06:57:5952.90693-0.66839131°27km/h26957m-17.4m/s-48.5°C3%0hPa2.7V08:28:4302:08:4500:00:00
DJ2DS-152026-08-31 06:57:4752.90654-0.6695821°53km/h27117m-18.1m/s-49.1°C0.8%-1.0hPa2.7V00:00:0000:00:0000:00:00
BIOWL1-152026-08-31 06:57:3852.90569-0.66921268°22km/h27282m-18.9m/s0°C0%0hPa2.7V08:29:5802:08:2700:00:00
DJ2DS-152026-08-31 06:57:3552.90579-0.66902196°42km/h27337m-18.4m/s-48.6°C3.2%0hPa2.7V00:00:0002:08:2400:00:00
DB0UT-72026-08-31 06:57:3452.90585-0.66901172°38km/h27355m-18.5m/s-48.5°C3.2%0hPa2.7V08:29:0000:00:0000:00:00
DM0DOS-112026-08-31 06:57:2452.90637-0.6707663°49km/h27555m-17.7m/s-48.1°C3%0hPa2.6V08:29:1602:08:1200:00:00
BIOWL1-152026-08-31 06:57:2252.90631-0.6709352°46km/h27573m-19.5m/s0°C0%0hPa2.7V08:29:5802:08:1100:00:00
BIOWL9-152026-08-31 06:57:1752.90585-0.67125336°22km/h27688m-16.9m/s0°C-1.0%-1.0hPa2.6V00:00:0000:00:0000:00:00
DM0DOS-112026-08-31 06:57:1452.90572-0.67104295°24km/h27741m-20.6m/s-48°C3%0hPa2.6V08:29:2602:08:0200:00:00
BIOWL1-152026-08-31 06:57:1152.90567-0.67089323°20km/h27785m-22.3m/s0°C0%0hPa2.6V08:29:5802:08:0000:00:00
DM0DOS-112026-08-31 06:57:0452.90525-0.6707214°18km/h28040m-33.8m/s-48.6°C3.3%0hPa2.7V08:29:3602:07:5200:00:00
DB0UT-72026-08-31 06:57:0452.90530-0.67071355°9km/h28008m-32.6m/s-48.5°C3.3%0hPa2.6V00:00:0002:07:5300:00:00
DM0DOS-112026-08-31 06:56:5452.90495-0.6712876°15km/h28401m-39.9m/s-46.9°C2.8%0hPa2.6V08:29:4602:07:4200:00:00
BIOWL1-152026-08-31 06:56:4552.90499-0.67160160°7km/h28689m-34.6m/s0°C0%0hPa2.7V08:29:5802:07:3400:00:00
DM0DOS-112026-08-31 06:56:4452.90502-0.67162158°7km/h28757m-34.1m/s-47.2°C3%0hPa2.6V08:29:5602:07:3200:00:00
BIOWL1-152026-08-31 06:56:3752.90510-0.6719176°5km/h29044m-39m/s0°C0%0hPa2.6V18:12:1502:07:2400:00:00
DM0DOS-112026-08-31 06:56:3452.90509-0.6719690°7km/h29121m-37.9m/s-47.3°C3.1%0hPa2.7V08:30:0002:07:2200:00:00
BIOWL1-152026-08-31 06:56:2552.90514-0.67196158°13km/h29399m-37.7m/s0°C0%0hPa2.6V18:12:1502:07:1400:00:00
DM0DOS-112026-08-31 06:56:2452.90521-0.67203148°22km/h29476m-39.2m/s-45.7°C2.7%0hPa2.6V08:30:0002:07:1200:00:00
DM0DOS-112026-08-31 06:56:1952.90564-0.67223221°15km/h29877m-32m/s-46.2°C2.8%0hPa2.6V08:30:0002:07:0200:00:00
DJ2DS-152026-08-31 06:56:1552.90558-0.67229193°15km/h29805m-39.6m/s-45.9°C2.7%0hPa2.7V00:00:0002:07:0400:00:00
DM0DOS-112026-08-31 06:56:0852.90579-0.67169193°9km/h29914m6m/s-46.3°C2.8%0hPa2.7V08:30:0002:06:5200:00:00
BIOWL1-152026-08-31 06:56:0252.90582-0.67169166°13km/h29909m5.7m/s0°C0%0hPa2.7V18:12:1502:06:5100:00:00
DJ2DS-152026-08-31 06:55:5952.90592-0.67179143°16km/h29891m4.9m/s-46.3°C0.6%-1.0hPa2.6V00:00:0000:00:0000:00:00
DM0DOS-112026-08-31 06:55:5852.90616-0.67174234°15km/h29859m6m/s-46.3°C2.8%0hPa2.6V08:30:0002:06:4200:00:00
DJ2DS-152026-08-31 06:55:5552.90609-0.67184205°13km/h29869m4.9m/s-46.2°C2.8%0hPa2.6V00:00:0002:06:4400:00:00
DM0DOS-112026-08-31 06:55:4852.90639-0.67184166°15km/h29802m5.7m/s-46°C2.8%0hPa2.6V08:30:0002:06:3200:00:00
DB0UT-72026-08-31 06:55:4752.90621-0.67173153°15km/h29825m5.7m/s-46.1°C2.8%0hPa2.6V00:00:0002:06:3600:00:00
DM0DOS-112026-08-31 06:55:3852.90658-0.67177130°20km/h29741m5.2m/s-45.8°C2.8%0hPa2.7V08:30:0002:06:2100:00:00
DJ2DS-152026-08-31 06:55:3552.90653-0.67163146°13km/h29757m6.2m/s-45.7°C2.8%0hPa2.6V00:00:0002:06:2400:00:00
DM0DOS-112026-08-31 06:55:2752.90680-0.67158243°9km/h29691m6m/s-45.9°C2.8%0hPa2.6V08:30:0002:06:1200:00:00
DM0DOS-112026-08-31 06:55:1752.90707-0.67173203°24km/h29635m4.9m/s-45.6°C2.7%0hPa2.6V08:30:0002:06:0200:00:00
DJ2DS-152026-08-31 06:55:1552.90697-0.67175167°20km/h29647m6.4m/s-45.7°C2.8%0hPa2.7V00:00:0002:06:0400:00:00
DM0DOS-112026-08-31 06:55:0852.90742-0.67178171°29km/h29583m5.2m/s-46.1°C2.8%0hPa2.7V08:30:0002:05:5200:00:00
DM0DOS-112026-08-31 06:54:5752.90795-0.67168154°16km/h29527m6.6m/s-46.1°C2.8%0hPa2.6V08:30:0002:05:4200:00:00
DJ2DS-152026-08-31 06:54:5552.90785-0.67164174°15km/h29538m5.0m/s-46.0°C2.8%0hPa2.6V00:00:0002:05:4400:00:00
DM0DOS-112026-08-31 06:54:4752.90826-0.67201190°9km/h29468m6.5m/s-46°C2.8%0hPa2.6V08:30:0002:05:3200:00:00
DJ2DS-152026-08-31 06:54:4752.90815-0.67197156°20km/h29487m5.1m/s-46.1°C0.6%-1.0hPa2.7V00:00:0000:00:0000:00:00
DM0DOS-112026-08-31 06:54:3852.90844-0.67220129°18km/h29410m6.7m/s-46.1°C2.7%0hPa2.7V08:30:0002:05:2200:00:00
DJ2DS-152026-08-31 06:54:3552.90840-0.67210108°11km/h29422m5.3m/s-46.1°C2.7%0hPa2.6V00:00:0002:05:2400:00:00
DB0UT-72026-08-31 06:54:3252.90847-0.67225136°13km/h29404m5.3m/s-46.1°C2.7%0hPa2.6V00:00:0000:00:0000:00:00
DM0DOS-112026-08-31 06:54:2752.90857-0.6725366°9km/h29353m5.4m/s-46.6°C2.7%0hPa2.6V08:30:0002:05:1200:00:00
DM0DOS-112026-08-31 06:54:1752.90841-0.672909km/h29295m4.9m/s-47.4°C2.9%0hPa2.6V08:30:0002:05:0200:00:00
BIOWL9-152026-08-31 06:54:1152.90835-0.6729358°5km/h29279m5.6m/s-47.5°C0.7%-1.0hPa2.7V00:00:0000:00:0000:00:00
DM0DOS-112026-08-31 06:54:0752.90817-0.6734666°20km/h29240m6m/s-47.8°C3%0hPa2.7V08:30:0002:04:5200:00:00
BIOWL1-152026-08-31 06:54:0252.90816-0.6735284°13km/h29235m5.3m/s-47.8°C0%0hPa2.7V18:12:1502:04:5100:00:00
DB0UT-72026-08-31 06:54:0252.90816-0.6735285°5km/h29235m5.3m/s-47.7°C3.0%0hPa2.6V00:00:0002:04:5100:00:00
DM0DOS-112026-08-31 06:53:5752.90814-0.6736328°2km/h29183m5m/s-48°C3%0hPa2.6V08:30:0002:04:4200:00:00
BIOWL1-152026-08-31 06:53:5152.90808-0.6737756°13km/h29161m5m/s-48.1°C0%0hPa2.6V18:12:1502:04:3800:00:00
DM0DOS-112026-08-31 06:53:4752.90810-0.67382156°4km/h29125m6.1m/s-48.1°C3%0hPa2.6V08:30:0002:04:3200:00:00
BIOWL1-152026-08-31 06:53:4352.90812-0.67384143°7km/h29114m6.1m/s-48.2°C0.1%0hPa2.6V18:12:1502:04:3000:00:00
DM0DOS-112026-08-31 06:53:3752.90823-0.67404111°2km/h29065m6.2m/s-48.2°C3.1%0hPa2.6V08:30:0002:04:2200:00:00
BIOWL1-152026-08-31 06:53:3352.90825-0.67403203°9km/h29054m4.9m/s-48.1°C0.1%0hPa2.7V18:12:1502:04:2000:00:00
DB0UT-72026-08-31 06:53:3252.90823-0.67403198°7km/h29060m5.9m/s-48.1°C3.1%0hPa2.7V00:00:0000:00:0000:00:00
DM0DOS-112026-08-31 06:53:2752.90843-0.67397192°11km/h29006m4.7m/s-48°C3.1%0hPa2.7V08:30:0002:04:1200:00:00
BIOWL1-152026-08-31 06:53:2152.90847-0.67398128°5km/h28994m7.1m/s-48°C0.1%0hPa2.6V18:12:1502:04:1000:00:00
DM0DOS-112026-08-31 06:53:1852.90857-0.67405207°9km/h28948m6.6m/s-47.8°C3%0hPa2.7V08:30:0002:04:0200:00:00
BIOWL1-152026-08-31 06:53:1352.90860-0.67404148°4km/h28935m5.8m/s-47.9°C0%0hPa2.7V18:12:1502:04:0000:00:00
BIOWL9-152026-08-31 06:53:0852.90862-0.67407162°4km/h28917m6.2m/s-47.8°C0.7%-1.0hPa2.6V00:00:0000:00:0000:00:00
DM0DOS-112026-08-31 06:53:0752.90868-0.67420128°9km/h28886m6m/s-47.7°C3%0hPa2.6V08:30:0002:03:5200:00:00
BIOWL1-152026-08-31 06:53:0052.90874-0.67423176°7km/h28868m5.5m/s-47.8°C0%0hPa2.7V18:12:1502:03:4900:00:00
DJ2DS-152026-08-31 06:52:5952.90876-0.67425106°5km/h28856m6.2m/s-47.8°C0.7%-1.0hPa2.7V00:00:0000:00:0000:00:00
DM0DOS-112026-08-31 06:52:5752.90878-0.67434185°2km/h28826m5.2m/s-47.9°C3.1%0hPa2.7V08:30:0002:03:4200:00:00
BIOWL1-152026-08-31 06:52:5052.90877-0.6743634°5km/h28808m6.1m/s-47.9°C0%0hPa2.6V18:12:1502:03:3900:00:00
DM0DOS-112026-08-31 06:52:4752.90877-0.67437146°2km/h28766m5.4m/s-47.9°C3.1%0hPa2.7V08:30:0002:03:3200:00:00
BIOWL1-152026-08-31 06:52:4152.90890-0.6745992°15km/h28723m5.6m/s-47.7°C0%0hPa2.7V18:12:1502:03:2500:00:00
DM0DOS-112026-08-31 06:52:3852.90889-0.6747182°4km/h28706m6.5m/s-47.7°C3%0hPa2.7V08:30:0002:03:2200:00:00
BIOWL1-152026-08-31 06:52:3052.90891-0.67465104°9km/h28665m6.7m/s-47.6°C0%0hPa2.6V18:12:1502:03:1500:00:00
DM0DOS-112026-08-31 06:52:2752.90897-0.67485111°22km/h28647m5.5m/s-47.6°C3%0hPa2.6V08:30:0002:03:1200:00:00
DJ2DS-152026-08-31 06:52:2352.90898-0.6749395°20km/h28641m6.8m/s-47.7°C0.7%-1.0hPa2.6V00:00:0000:00:0000:00:00
DM0DOS-112026-08-31 06:52:1752.90889-0.6752673°9km/h28588m5.3m/s-47.5°C2.9%0hPa2.6V08:30:0002:03:0200:00:00
BIOWL1-152026-08-31 06:52:1452.90890-0.6752460°5km/h28594m6.1m/s-47.5°C0%0hPa2.7V18:12:1502:03:0300:00:00
DM0DOS-112026-08-31 06:52:0752.90882-0.6759532°9km/h28528m6.2m/s-47.7°C3%0hPa2.7V08:30:0002:02:5200:00:00
BIOWL1-152026-08-31 06:52:0152.90879-0.6759824°7km/h28516m6.2m/s-47.7°C0%0hPa2.6V18:12:1502:02:5000:00:00
DM0DOS-112026-08-31 06:51:5752.90875-0.6764369°22km/h28468m6.9m/s-47.7°C2.9%0hPa2.6V08:30:0002:02:4200:00:00
BIOWL1-152026-08-31 06:51:5252.90866-0.6766544°18km/h28452m6.7m/s-47.7°C0%0hPa2.7V18:12:1502:02:3900:00:00
DM0DOS-112026-08-31 06:51:4852.90847-0.6769651°16km/h28411m5.2m/s-48°C3%0hPa2.6V08:30:0002:02:3200:00:00
DM0DOS-112026-08-31 06:51:3752.90829-0.6774516°15km/h28349m5.7m/s-48.5°C3.1%0hPa2.7V08:30:0002:02:2200:00:00
BIOWL1-152026-08-31 06:51:3452.90833-0.6774230°16km/h28356m6.8m/s-48.5°C0.1%0hPa2.7V18:12:1502:02:2300:00:00
DM0DOS-112026-08-31 06:51:2752.90792-0.6777769°13km/h28290m6m/s-48.8°C3.1%0hPa2.7V08:30:0002:02:1200:00:00
BIOWL1-152026-08-31 06:51:2152.90777-0.67797353°13km/h28255m5.8m/s-49.1°C0.1%0hPa2.7V18:12:1502:02:0600:00:00
DM0DOS-112026-08-31 06:51:1852.90760-0.6780431°24km/h28231m5.2m/s-49.2°C3.2%0hPa2.6V08:30:0002:02:0200:00:00
DJ2DS-152026-08-31 06:51:1552.90769-0.6779715°20km/h28244m6.7m/s-49.1°C3.2%0hPa2.7V00:00:0002:02:0400:00:00
DJ2DS-152026-08-31 06:51:1052.90747-0.6781928°16km/h28214m5.4m/s-49.2°C0.8%-1.0hPa2.7V00:00:0000:00:0000:00:00
DM0DOS-112026-08-31 06:51:0652.90718-0.67828331°18km/h28171m6.5m/s-49.2°C3.2%0hPa2.7V08:30:0002:01:5200:00:00
BIOWL9-152026-08-31 06:51:0452.90722-0.67831348°16km/h28178m7.4m/s-49.2°C0.8%-1.0hPa2.6V00:00:0000:00:0000:00:00
BIOWL1-152026-08-31 06:51:0452.90722-0.67831348°16km/h28178m7.4m/s-49.2°C0.2%0hPa2.7V18:12:1502:01:5300:00:00
DM0DOS-112026-08-31 06:50:5452.90661-0.6780222km/h28109m5.6m/s-49.1°C3.3%0hPa2.6V08:30:0002:01:4200:00:00
DM0DOS-112026-08-31 06:50:4852.90610-0.67753326°27km/h28049m6.6m/s-49.1°C3.3%0hPa2.6V08:30:0002:01:3200:00:00
BIOWL1-152026-08-31 06:50:4752.90616-0.67759327°31km/h28056m6.8m/s-49.1°C0.2%0hPa2.6V18:12:1502:01:3300:00:00
DM0DOS-112026-08-31 06:50:3652.90563-0.67714307°26km/h27989m7.1m/s-48.9°C3.2%0hPa2.6V08:30:0002:01:2200:00:00
BIOWL1-152026-08-31 06:50:3452.90567-0.67722302°22km/h27996m5.4m/s-48.9°C0.2%0hPa2.7V18:12:1502:01:2300:00:00
BIOWL9-152026-08-31 06:50:3352.90563-0.67714307°24km/h27989m7.1m/s-48.9°C0.8%-1.0hPa2.7V00:00:0000:00:0000:00:00
DB0UT-72026-08-31 06:50:2852.90542-0.67679316°15km/h27960m6.0m/s-48.7°C3.2%0hPa2.7V00:00:0000:00:0000:00:00
DM0DOS-112026-08-31 06:50:2452.90521-0.67660340°15km/h27929m7m/s-48.6°C3.2%0hPa2.7V08:30:0002:01:1200:00:00
BIOWL1-152026-08-31 06:50:2352.90521-0.67660341°15km/h27929m7m/s-48.6°C0.1%0hPa2.7V18:12:1502:01:1200:00:00
DM0DOS-112026-08-31 06:50:1952.90506-0.67611288°13km/h27868m6m/s-48.4°C3.1%0hPa2.6V08:30:0002:01:0200:00:00
BIOWL1-152026-08-31 06:50:1252.90505-0.67607296°9km/h27862m5.9m/s-48.4°C0.1%0hPa2.7V18:12:1502:01:0100:00:00
DM0DOS-112026-08-31 06:50:0652.90493-0.67592257°16km/h27807m6.5m/s-48.4°C3.1%0hPa2.7V08:30:0002:00:5200:00:00
BIOWL1-152026-08-31 06:50:0152.90494-0.67579258°16km/h27795m5.4m/s-48.4°C0.1%0hPa2.6V18:12:1502:00:5000:00:00
DB0UT-72026-08-31 06:49:5852.90499-0.67564222°11km/h27776m5.8m/s-48.3°C3.1%0hPa2.7V00:00:0002:00:4708:30:00
DM0DOS-112026-08-31 06:49:5452.90495-0.6756542°7km/h27744m7.1m/s-48.3°C3.1%0hPa2.7V08:30:0002:00:4200:00:00
BIOWL1-152026-08-31 06:49:5152.90493-0.67571304°4km/h27719m6.6m/s-48.3°C0.1%0hPa2.6V18:12:1502:00:3800:00:00
DM0DOS-112026-08-31 06:49:4852.90498-0.67557188°7km/h27683m5.5m/s-48.3°C3.1%0hPa2.6V08:30:0002:00:3200:00:00
BIOWL1-152026-08-31 06:49:4052.90497-0.67568118°13km/h27644m6.6m/s-48.3°C0.1%0hPa2.6V18:12:1502:00:2600:00:00
DM0DOS-112026-08-31 06:49:3652.90505-0.67585135°11km/h27617m5.5m/s-48.5°C3.1%0hPa2.6V08:30:0002:00:2200:00:00
BIOWL1-152026-08-31 06:49:2652.90523-0.67619105°16km/h27573m6m/s-48.4°C0.1%0hPa2.7V18:12:1502:00:1500:00:00
DM0DOS-112026-08-31 06:49:2452.90527-0.67646108°26km/h27553m5.6m/s-48.5°C3.1%0hPa2.6V08:30:0002:00:1200:00:00
DJ2DS-152026-08-31 06:49:2252.90530-0.67656108°26km/h27547m5.5m/s-48.5°C0.8%-1.0hPa2.6V00:00:0000:00:0000:00:00
DM0DOS-112026-08-31 06:49:1852.90550-0.67723102°18km/h27490m5.4m/s-48.6°C3.1%0hPa2.6V08:30:0002:00:0200:00:00
BIOWL1-152026-08-31 06:49:1552.90549-0.67716115°18km/h27496m6.9m/s-48.6°C0.1%0hPa2.7V18:12:1502:00:0300:00:00
BIOWL1-152026-08-31 06:49:0752.90562-0.6780593°15km/h27417m7.4m/s0°C0%0hPa2.6V18:12:1501:59:5000:00:00
BIOWL1-152026-08-31 06:48:5152.90552-0.6789074°11km/h27329m6.8m/s0°C0%0hPa2.6V18:12:1501:59:3600:00:00
DJ2DS-152026-08-31 06:48:4652.90551-0.6789461°9km/h27322m6.1m/s-48.7°C0.7%-1.0hPa2.6V00:00:0000:00:0000:00:00
DM0DOS-112026-08-31 06:48:4552.90546-0.6792075°24km/h27298m5.5m/s-48.9°C3.2%0hPa2.6V08:30:0001:59:3100:00:00
BIOWL1-152026-08-31 06:48:3752.90528-0.6795112°22km/h27269m6.7m/s0°C0%0hPa2.7V18:12:1501:59:2600:00:00
DM0DOS-112026-08-31 06:48:3752.90504-0.6795720km/h27236m5.9m/s-48.7°C3.2%0hPa2.7V08:30:0001:59:2100:00:00
DJ2DS-152026-08-31 06:48:3552.90518-0.6795410°20km/h27256m5.8m/s-48.7°C3.2%0hPa2.6V00:00:0001:59:2400:00:00
DM0DOS-112026-08-31 06:48:2752.90463-0.6798424km/h27176m6.6m/s-48.6°C3.2%0hPa2.6V08:30:0001:59:1100:00:00
DM0DOS-112026-08-31 06:48:1652.90412-0.6800726°20km/h27113m6.9m/s-48.5°C3.1%0hPa2.7V08:30:0001:59:0100:00:00
DJ2DS-152026-08-31 06:48:1552.90424-0.6799620°20km/h27132m7.3m/s-48.5°C3.1%0hPa2.7V00:00:0001:59:0400:00:00
DJ2DS-152026-08-31 06:48:1052.90401-0.6801312°27km/h27100m6.2m/s-48.6°C0.8%-1.0hPa2.7V00:00:0000:00:0000:00:00
DM0DOS-112026-08-31 06:48:0452.90351-0.68017355°20km/h27051m4.7m/s-48.4°C3.1%0hPa2.7V08:30:0001:58:5100:00:00
DM0DOS-112026-08-31 06:47:5752.90311-0.68030350°15km/h26987m5.4m/s-48.2°C3.1%0hPa2.6V08:30:0001:58:4100:00:00
DJ2DS-152026-08-31 06:47:5552.90325-0.6803015km/h27006m6.1m/s-48.2°C3.1%0hPa2.7V00:00:0001:58:4408:30:00
DM0DOS-112026-08-31 06:47:4752.90285-0.6803823°18km/h26925m5.8m/s-48.1°C3%0hPa2.7V08:30:0001:58:3100:00:00
DM0DOS-112026-08-31 06:47:3652.90251-0.6804117°5km/h26863m5.2m/s-48.1°C3%0hPa2.6V08:30:0001:58:2100:00:00
DB0UT-72026-08-31 06:47:3652.90262-0.68044353°7km/h26888m6.3m/s-48.1°C3.0%0hPa2.6V00:00:0000:00:0000:00:00
DJ2DS-152026-08-31 06:47:3552.90258-0.68042350°9km/h26882m5.6m/s-48.1°C3.1%0hPa2.6V00:00:0001:58:2400:00:00
DJ2DS-152026-08-31 06:47:3452.90255-0.68042346°11km/h26876m6.2m/s-48.1°C0.7%-1.0hPa2.6V00:00:0000:00:0000:00:00
DM0DOS-112026-08-31 06:47:2552.90229-0.68051323°13km/h26804m4.6m/s-48.4°C3.1%0hPa2.6V08:30:0001:58:1100:00:00
DM0DOS-112026-08-31 06:47:1752.90221-0.6805386°5km/h26743m5.3m/s-48.4°C3.1%0hPa2.6V08:30:0001:58:0100:00:00
DJ2DS-152026-08-31 06:47:1552.90222-0.6804775°9km/h26762m5.3m/s-48.5°C3.1%0hPa2.6V00:00:0001:58:0400:00:00
DM0DOS-112026-08-31 06:47:0752.90202-0.6807485°9km/h26685m6.2m/s-48.2°C3%0hPa2.6V08:30:0001:57:5100:00:00
DB0UT-72026-08-31 06:47:0452.90203-0.6806466°13km/h26697m4.8m/s-48.2°C3.0%0hPa2.7V00:00:0001:57:5300:00:00
DM0DOS-112026-08-31 06:46:5752.90200-0.6810651°7km/h26628m6.6m/s-48.6°C3.1%0hPa2.7V08:30:0001:57:4100:00:00
DJ2DS-152026-08-31 06:46:5452.90202-0.6810331°13km/h26640m4.7m/s-48.4°C3.1%0hPa2.7V00:00:0001:57:4300:00:00
DM0DOS-112026-08-31 06:46:4652.90185-0.6817468°20km/h26569m5m/s-48.8°C3.1%0hPa2.6V08:30:0001:57:3100:00:00
DM0DOS-112026-08-31 06:46:3452.90176-0.6821469°9km/h26511m5.1m/s-49°C3.2%0hPa2.7V08:30:0001:57:2100:00:00
DJ2DS-152026-08-31 06:46:3452.90177-0.6820675°9km/h26522m6.6m/s-48.9°C3.1%0hPa2.6V00:00:0001:57:2300:00:00
DM0DOS-112026-08-31 06:46:2752.90171-0.6825971°11km/h26452m5.5m/s-49.2°C3.2%0hPa2.6V08:30:0001:57:1100:00:00
DJ2DS-152026-08-31 06:46:2252.90171-0.6825971°9km/h26452m5.5m/s-49.2°C0.8%-1.0hPa2.7V00:00:0000:00:0000:00:00
DM0DOS-112026-08-31 06:46:1452.90155-0.6828655°9km/h26393m5.4m/s-49.4°C3.2%0hPa2.7V08:30:0001:57:0100:00:00
DM0DOS-112026-08-31 06:46:0552.90158-0.6833196°11km/h26335m5.2m/s-49.5°C3.2%0hPa2.6V08:30:0001:56:5100:00:00
DB0UT-72026-08-31 06:46:0452.90157-0.68322106°11km/h26347m6.6m/s-49.5°C3.2%0hPa2.6V00:00:0001:56:5300:00:00
DM0DOS-112026-08-31 06:45:5552.90144-0.6835753°7km/h26276m4.9m/s-49.6°C3.2%0hPa2.6V08:30:0001:56:4100:00:00
DJ2DS-152026-08-31 06:45:4652.90141-0.6838168°9km/h26240m5.4m/s-50.0°C0.8%-1.0hPa2.6V00:00:0000:00:0000:00:00
DM0DOS-112026-08-31 06:45:4352.90135-0.6840247°16km/h26216m6.3m/s-50.2°C3.3%0hPa2.6V08:30:0001:56:3100:00:00
DM0DOS-112026-08-31 06:45:3552.90106-0.6843110°7km/h26160m5.2m/s-50.3°C3.4%0hPa2.7V08:30:0001:56:2100:00:00
DB0UT-72026-08-31 06:45:3452.90110-0.6842922°11km/h26171m6.5m/s-50.3°C3.4%0hPa2.7V00:00:0000:00:0000:00:00
DM0DOS-112026-08-31 06:45:2452.90083-0.6846644°13km/h26102m6.3m/s-50.3°C3.4%0hPa2.7V08:30:0001:56:1100:00:00
DJ2DS-152026-08-31 06:45:2152.90080-0.6846928°9km/h26096m6.1m/s-50.3°C3.4%0hPa2.6V00:00:0001:56:1000:00:00
DM0DOS-112026-08-31 06:45:1552.90062-0.6849039°13km/h26043m6.5m/s-50.4°C3.4%0hPa2.7V08:30:0001:56:0100:00:00
DJ2DS-152026-08-31 06:45:1052.90058-0.6849739°9km/h26032m5.1m/s-50.3°C0.9%-1.0hPa2.6V00:00:0000:00:0000:00:00
DM0DOS-112026-08-31 06:45:0552.90040-0.68507352°7km/h25986m6.1m/s-50.3°C3.4%0hPa2.6V08:30:0001:55:5100:00:00
DB0UT-72026-08-31 06:45:0452.90044-0.6850532°9km/h25999m5.2m/s-50.2°C3.4%0hPa2.7V00:00:0001:55:5300:00:00
DJ2DS-152026-08-31 06:45:0152.90038-0.68506347°7km/h25980m5.4m/s-50.2°C3.4%0hPa2.6V00:00:0001:55:5000:00:00
DM0DOS-112026-08-31 06:44:5752.90024-0.6851522°15km/h25928m5.9m/s-50.3°C3.3%0hPa2.6V08:30:0001:55:4100:00:00
DM0DOS-112026-08-31 06:44:4552.90004-0.685257km/h25871m5.3m/s-50.4°C3.4%0hPa2.6V08:30:0001:55:3100:00:00
DJ2DS-152026-08-31 06:44:4152.90002-0.6852516km/h25866m5.0m/s-50.3°C3.4%0hPa2.6V00:00:0001:55:3000:00:00
DM0DOS-112026-08-31 06:44:3552.89964-0.6854725°22km/h25814m5.7m/s-50.3°C3.3%0hPa2.6V08:30:0001:55:2100:00:00
DB0UT-72026-08-31 06:44:3452.89974-0.6854215km/h25827m4.8m/s-50.2°C3.3%0hPa2.6V00:00:0000:00:0000:00:00
DM0DOS-112026-08-31 06:44:2552.89930-0.68558344°13km/h25755m4.8m/s-50.4°C3.4%0hPa2.6V08:30:0001:55:1100:00:00
DJ2DS-152026-08-31 06:44:2152.89927-0.68557358°13km/h25749m6.8m/s-50.3°C3.3%0hPa2.6V00:00:0001:55:1008:30:00
DM0DOS-112026-08-31 06:44:1552.89896-0.68549333°13km/h25698m5.2m/s-50.5°C3.4%0hPa2.6V08:30:0001:55:0100:00:00
DM0DOS-112026-08-31 06:44:0552.89870-0.68520316°11km/h25640m4.8m/s-50.4°C3.4%0hPa2.6V08:30:0001:54:5100:00:00
DB0UT-72026-08-31 06:44:0452.89875-0.68525332°15km/h25651m6.0m/s-50.4°C3.4%0hPa2.7V00:00:0001:54:5300:00:00
DJ2DS-152026-08-31 06:43:5852.89860-0.68509319°15km/h25612m6.9m/s-50.5°C0.8%-1.0hPa2.7V00:00:0000:00:0000:00:00
DM0DOS-112026-08-31 06:43:5552.89846-0.68480296°13km/h25583m5.7m/s-50.6°C3.4%0hPa2.7V08:30:0001:54:4100:00:00
DM0DOS-112026-08-31 06:43:4552.89827-0.68421332°20km/h25524m4.5m/s-50.7°C3.4%0hPa2.7V08:30:0001:54:3100:00:00
DJ2DS-152026-08-31 06:43:4152.89823-0.68418346°11km/h25518m6.4m/s-50.6°C3.4%0hPa2.7V00:00:0001:54:3000:00:00
DM0DOS-112026-08-31 06:43:3552.89820-0.68389252°16km/h25465m5.3m/s-50.9°C3.4%0hPa2.7V08:30:0001:54:2100:00:00
BIOWL1-152026-08-31 06:43:3252.89820-0.68375293°18km/h25453m5.5m/s-50.9°C0.3%0hPa2.6V18:12:1501:54:1900:00:00
DM0DOS-112026-08-31 06:43:2452.89814-0.68355183°11km/h25407m6.4m/s-50.9°C3.4%0hPa2.7V08:30:0001:54:1100:00:00
BIOWL1-152026-08-31 06:43:1652.89831-0.68342254°13km/h25372m5.9m/s-50.9°C0.3%0hPa2.7V18:12:1501:54:0500:00:00
DM0DOS-112026-08-31 06:43:1452.89830-0.68330293°7km/h25349m6.9m/s-50.9°C3.5%0hPa2.6V08:30:0001:54:0100:00:00
DM0DOS-112026-08-31 06:43:0452.89849-0.68318303°5km/h25292m6.1m/s-50.9°C3.5%0hPa2.7V08:30:0001:53:5100:00:00
BIOWL1-152026-08-31 06:43:0452.89848-0.68323226°9km/h25302m5m/s0°C0%0hPa2.6V18:12:1501:53:5300:00:00
BIOWL1-152026-08-31 06:42:5552.89859-0.68310157°11km/h25243m5.6m/s0°C0%0hPa2.6V18:12:1501:53:4200:00:00
DM0DOS-112026-08-31 06:42:5452.89862-0.68312154°11km/h25237m5.4m/s-50.9°C3.4%0hPa2.6V08:30:0001:53:4100:00:00
BIOWL9-152026-08-31 06:42:4852.89868-0.6831552°4km/h25208m6.3m/s-51.2°C0.9%-1.0hPa2.6V00:00:0000:00:0000:00:00
DJ2DS-152026-08-31 06:42:4652.89866-0.68316345°4km/h25197m6.0m/s-51.2°C0.8%-1.0hPa2.6V00:00:0000:00:0000:00:00
DM0DOS-112026-08-31 06:42:4452.89865-0.68311228°5km/h25180m6.1m/s-51.3°C3.5%0hPa2.6V08:30:0001:53:3100:00:00
BIOWL1-152026-08-31 06:42:4352.89865-0.68313281°5km/h25185m5m/s0°C0%0hPa2.6V18:12:1501:53:3200:00:00
DJ2DS-152026-08-31 06:42:4152.89866-0.68310191°4km/h25173m6.3m/s-51.3°C3.5%0hPa2.6V00:00:0001:53:3000:00:00
DM0DOS-112026-08-31 06:42:3352.89866-0.6831224°7km/h25123m5.6m/s-51.2°C3.5%0hPa2.6V08:30:0001:53:2100:00:00
BIOWL1-152026-08-31 06:42:2452.89863-0.68311180°2km/h25077m5.9m/s0°C0%0hPa2.7V18:12:1501:53:1300:00:00
BIOWL1-152026-08-31 06:42:1152.89862-0.68333196°5km/h25004m5.8m/s0°C0%0hPa2.6V18:12:1501:53:0000:00:00
DJ2DS-152026-08-31 06:42:1052.89863-0.68331223°2km/h24994m5.3m/s-51.0°C0.8%-1.0hPa2.7V00:00:0000:00:0000:00:00
DJ2DS-152026-08-31 06:42:0152.89860-0.683279km/h24950m5.9m/s-51.3°C3.5%0hPa2.7V00:00:0001:52:5000:00:00
DJ2DS-152026-08-31 06:41:4152.89858-0.682677km/h24840m6.3m/s-51.7°C3.6%0hPa2.7V00:00:0001:52:3000:00:00
DJ2DS-152026-08-31 06:41:2152.89855-0.68312133°9km/h24730m4.8m/s-51.5°C3.5%0hPa2.7V00:00:0001:52:1008:30:00
DJ2DS-152026-08-31 06:40:5852.89873-0.6838566°15km/h24597m6.7m/s-52.0°C0.9%-1.0hPa2.6V00:00:0000:00:0000:00:00
DM0DOS-112026-08-31 06:40:4152.89850-0.68406302°7km/h24484m4.9m/s-52.5°C3.7%0hPa2.6V08:30:0001:51:2500:00:00
DJ2DS-152026-08-31 06:40:4052.89849-0.68413155°7km/h24505m5.5m/s-52.3°C3.7%0hPa2.6V00:00:0001:51:2900:00:00
DM0DOS-112026-08-31 06:40:3152.89847-0.68366266°11km/h24427m5.8m/s-52.4°C3.7%0hPa2.6V08:30:0001:51:1500:00:00
DM0DOS-112026-08-31 06:40:2052.89857-0.68360220°5km/h24364m6.3m/s-52.3°C3.7%0hPa2.6V08:30:0001:51:0400:00:00
DJ2DS-152026-08-31 06:40:2052.89849-0.68357180°7km/h24391m5.4m/s-52.3°C3.7%0hPa2.6V00:00:0001:51:0900:00:00
DM0DOS-112026-08-31 06:40:0952.89885-0.68330162°13km/h24302m6.7m/s-52.3°C3.7%0hPa2.6V08:30:0001:50:5300:00:00
DM0DOS-112026-08-31 06:39:5152.89894-0.6835198°11km/h24219m4.5m/s-51.9°C3.7%0hPa2.6V08:30:0001:50:3900:00:00
DJ2DS-152026-08-31 06:39:4552.89901-0.68369122°13km/h24190m6.1m/s-51.7°C0.9%-1.0hPa2.7V00:00:0000:00:0000:00:00
DM0DOS-112026-08-31 06:39:4152.89908-0.68391108°11km/h24161m5.4m/s-51.7°C3.6%0hPa2.7V08:30:0001:50:2900:00:00
BIOWL1-152026-08-31 06:38:5552.89861-0.6856138°15km/h23898m6.3m/s0°C0%0hPa2.7V18:12:1501:49:4400:00:00
DJ2DS-152026-08-31 06:38:3352.89766-0.6863760°13km/h23702m5.0m/s-51.6°C0.9%-1.0hPa2.7V00:00:0000:00:0000:00:00
DB0UT-72026-08-31 06:38:0852.89734-0.6863954°9km/h23633m5.0m/s0°C0%0hPa2.7V00:00:0001:48:5700:00:00
DM0DOS-112026-08-31 06:37:4752.89715-0.6871284°20km/h23493m5.8m/s-52.3°C3.7%0hPa2.6V08:30:0001:48:3100:00:00
DM0DOS-112026-08-31 06:37:3752.89700-0.6875751°9km/h23441m6.2m/s-52.2°C3.7%0hPa2.6V08:30:0001:48:2100:00:00
DM0DOS-112026-08-31 06:37:2752.89674-0.6879711°16km/h23385m3.9m/s-52°C3.7%0hPa2.6V08:30:0001:48:1100:00:00
BIOWL1-152026-08-31 06:37:2352.89670-0.6879815km/h23382m4m/s-52°C0.4%0hPa2.6V18:12:1501:48:1000:00:00
DJ2DS-152026-08-31 06:37:2152.89670-0.6879815km/h23382m4.0m/s-52.0°C0.9%-1.0hPa2.6V00:00:0000:00:0000:00:00
DM0DOS-112026-08-31 06:37:1652.89648-0.6880315km/h23333m7.1m/s-52°C3.7%0hPa2.6V08:30:0001:48:0100:00:00
BIOWL1-152026-08-31 06:37:1352.89651-0.68803358°11km/h23339m5.6m/s-52°C0.4%0hPa2.7V18:12:1501:48:0200:00:00
DB0UT-72026-08-31 06:37:0852.89632-0.68800330°7km/h23310m4.7m/s-52.0°C3.7%0hPa2.6V00:00:0001:47:5700:00:00
DM0DOS-112026-08-31 06:37:0652.89622-0.68791300°7km/h23278m6m/s-52.1°C3.7%0hPa2.6V08:30:0001:47:5100:00:00
BIOWL1-152026-08-31 06:37:0252.89620-0.68786319°7km/h23268m6.3m/s-52°C0.4%0hPa2.6V18:12:1501:47:4900:00:00
DM0DOS-112026-08-31 06:36:5752.89609-0.68767330°11km/h23224m4m/s-51.9°C3.6%0hPa2.7V08:30:0001:47:4100:00:00
BIOWL1-152026-08-31 06:36:5152.89607-0.68764319°13km/h23219m5.7m/s-51.9°C0.5%0hPa2.6V18:12:1501:47:4000:00:00
BIOWL1-152026-08-31 06:36:4052.89612-0.68742227°7km/h23148m5.4m/s-51.7°C0.4%0hPa2.7V18:12:1501:47:2700:00:00
DM0DOS-112026-08-31 06:36:3752.89615-0.68736216°11km/h23138m6m/s-51.8°C3.6%0hPa2.7V08:30:0001:47:2500:00:00
BIOWL1-152026-08-31 06:36:3052.89620-0.68714318°11km/h23101m5.9m/s-51.6°C0.4%0hPa2.6V18:12:1501:47:1800:00:00
DM0DOS-112026-08-31 06:36:2752.89613-0.68693265°13km/h23068m5.9m/s-51.5°C3.6%0hPa2.7V08:30:0001:47:1200:00:00
BIOWL1-152026-08-31 06:36:2052.89615-0.68679265°11km/h23053m4.6m/s-51.5°C0.4%0hPa2.6V18:12:1501:47:0900:00:00
DM0DOS-112026-08-31 06:36:1752.89622-0.68657175°13km/h23015m6.1m/s-51.5°C3.6%0hPa2.6V08:30:0001:47:0200:00:00
BIOWL1-152026-08-31 06:36:1052.89630-0.68656179°9km/h22999m6.3m/s-51.5°C0.4%0hPa2.7V18:12:1501:46:5900:00:00
DM0DOS-112026-08-31 06:36:0852.89639-0.68640219°5km/h22960m4.1m/s-51.4°C3.5%0hPa2.6V08:30:0001:46:5200:00:00
BIOWL1-152026-08-31 06:35:5952.89646-0.68627177°7km/h22928m5.9m/s-51.5°C0.4%0hPa2.6V18:12:1501:46:4600:00:00
DM0DOS-112026-08-31 06:35:5852.89653-0.68626214°4km/h22905m4.7m/s-51.4°C3.5%0hPa2.6V08:30:0001:46:4200:00:00
DM0DOS-112026-08-31 06:35:4852.89659-0.68643101°9km/h22848m6.5m/s-51.5°C3.5%0hPa2.6V08:30:0001:46:3200:00:00
BIOWL1-152026-08-31 06:35:4752.89657-0.68630105°4km/h22871m4.7m/s-51.4°C0.3%0hPa2.6V18:12:1501:46:3600:00:00
BIOWL1-152026-08-31 06:35:3952.89657-0.6866675°11km/h22816m6.1m/s-51.7°C0.4%0hPa2.6V18:12:1501:46:2600:00:00
DM0DOS-112026-08-31 06:35:3852.89653-0.6867969°11km/h22792m6.1m/s-51.7°C3.5%0hPa2.7V08:30:0001:46:2200:00:00
DB0UT-72026-08-31 06:35:3852.89658-0.6866182°15km/h22821m4.2m/s0°C0%0hPa2.6V00:00:0000:00:0000:00:00
DJ2DS-152026-08-31 06:35:3352.89653-0.6867969°11km/h22792m6.1m/s-51.7°C0.9%-1.0hPa2.6V00:00:0000:00:0000:00:00
DM0DOS-112026-08-31 06:35:2852.89635-0.6873436°16km/h22738m5m/s-51.7°C3.6%0hPa2.6V08:30:0001:46:1200:00:00
BIOWL1-152026-08-31 06:35:2652.89638-0.6872950°15km/h22743m5.9m/s-51.7°C0.3%0hPa2.7V18:12:1501:46:1300:00:00
DM0DOS-112026-08-31 06:35:1852.89594-0.6877844°15km/h22681m7m/s-51.9°C3.6%0hPa2.7V08:30:0001:46:0200:00:00
BIOWL1-152026-08-31 06:35:1652.89596-0.6877346°16km/h22687m5.1m/s-51.8°C0.4%0hPa2.7V18:12:1501:46:0300:00:00
DM0DOS-112026-08-31 06:35:0852.89551-0.6878727km/h22623m4.9m/s-52°C3.6%0hPa2.7V08:30:0001:45:5200:00:00
BIOWL1-152026-08-31 06:35:0652.89571-0.68790350°24km/h22640m5.9m/s-52°C0.5%0hPa2.6V18:12:1501:45:5500:00:00
DM0DOS-112026-08-31 06:34:5852.89516-0.687969km/h22567m5.7m/s-52.3°C3.7%0hPa2.7V08:30:0001:45:4200:00:00
BIOWL1-152026-08-31 06:34:5552.89518-0.68796360°5km/h22572m4.4m/s-52.2°C0.4%0hPa2.7V18:12:1501:45:4300:00:00
DM0DOS-112026-08-31 06:34:4852.89466-0.68777332°15km/h22509m6.2m/s-52.3°C3.7%0hPa2.7V08:30:0001:45:3200:00:00
BIOWL1-152026-08-31 06:34:4452.89470-0.68780343°20km/h22515m5.8m/s-52.3°C0.4%0hPa2.6V18:12:1501:45:3300:00:00
BIOWL1-152026-08-31 06:34:3652.89438-0.68764335°26km/h22459m7m/s0°C0%0hPa2.7V18:12:1501:45:2300:00:00
DM0DOS-112026-08-31 06:34:3552.89413-0.68742323°26km/h22435m5.1m/s-52.2°C3.8%0hPa2.6V08:30:0001:45:1900:00:00
DJ2DS-152026-08-31 06:34:2752.89398-0.68729346°20km/h22417m4.6m/s-52.1°C3.8%0hPa2.6V00:00:0001:45:1600:00:00
DM0DOS-112026-08-31 06:34:2552.89364-0.68692322°35km/h22376m5.5m/s-51.9°C3.7%0hPa2.6V08:30:0001:45:0900:00:00
DJ2DS-152026-08-31 06:34:2152.89371-0.68701325°31km/h22382m5.5m/s-52.0°C1.0%-1.0hPa2.7V00:00:0000:00:0000:00:00
DJ2DS-152026-08-31 06:34:0752.89310-0.68627335°15km/h22301m6.9m/s-51.4°C3.5%0hPa2.7V00:00:0001:44:5600:00:00
DM0DOS-112026-08-31 06:33:5852.89262-0.68577350°9km/h22217m5.1m/s-51.3°C3.5%0hPa2.7V08:30:0001:44:4200:00:00
DM0DOS-112026-08-31 06:33:4852.89245-0.6856229°7km/h22159m5.4m/s-51.5°C3.5%0hPa2.6V08:30:0001:44:3200:00:00
DJ2DS-152026-08-31 06:33:4752.89251-0.68569287°11km/h22181m5.2m/s-51.4°C3.4%0hPa2.7V00:00:0001:44:3600:00:00
DJ2DS-152026-08-31 06:33:4552.89247-0.68561359°7km/h22164m5.1m/s-51.5°C0.9%-1.0hPa2.7V00:00:0000:00:0000:00:00
DM0DOS-112026-08-31 06:33:3752.89240-0.6860262°11km/h22096m4.5m/s-51.7°C3.5%0hPa2.7V08:30:0001:44:2100:00:00
DM0DOS-112026-08-31 06:33:2752.89224-0.686334km/h22040m5.7m/s-51.9°C3.6%0hPa2.7V08:30:0001:44:1100:00:00
DJ2DS-152026-08-31 06:33:2552.89228-0.6863130°9km/h22056m6.1m/s0°C0%0hPa2.6V00:00:0001:44:1400:00:00
DM0DOS-112026-08-31 06:33:1352.89222-0.6865785°13km/h21986m6.6m/s-51.9°C3.6%0hPa2.6V08:30:0001:44:0100:00:00
DJ2DS-152026-08-31 06:33:0552.89224-0.68693113°16km/h21947m5.2m/s0°C0%0hPa2.7V00:00:0001:43:5400:00:00
DM0DOS-112026-08-31 06:33:0352.89230-0.68720115°16km/h21920m5.6m/s-52°C3.6%0hPa2.7V08:30:0001:43:4900:00:00
DJ2DS-152026-08-31 06:32:4552.89235-0.6883079°15km/h21835m5.5m/s0°C0%0hPa2.6V00:00:0001:43:3400:00:00
DJ2DS-152026-08-31 06:31:5752.89096-0.6907439°16km/h21576m4.2m/s-52.2°C1.0%-1.0hPa2.6V00:00:0000:00:0000:00:00
DJ2DS-152026-08-31 06:31:2152.88902-0.6923324km/h21395m4.6m/s-52.5°C1.0%-1.0hPa2.6V00:00:0000:00:0000:00:00
DJ2DS-152026-08-31 06:30:4552.88721-0.69191313°13km/h21219m5.3m/s-52.6°C1.0%-1.0hPa2.6V00:00:0000:00:0000:00:00
DJ2DS-152026-08-31 06:30:3352.88695-0.69158320°11km/h21165m4.4m/s0°C0%0hPa2.6V00:00:0001:41:2200:00:00
DJ2DS-152026-08-31 06:30:1152.88674-0.6919285°5km/h21053m5.2m/s0°C0%0hPa2.6V00:00:0001:41:0000:00:00
DJ2DS-152026-08-31 06:30:0952.88672-0.6919748°5km/h21037m5.2m/s0°C-1.0%-1.0hPa2.6V00:00:0000:00:0000:00:00
DM0DOS-112026-08-31 06:27:0552.88133-0.6999098°24km/h20049m4.8m/s-50.3°C3.4%0hPa2.6V08:30:0001:37:5000:00:00
DM0DOS-112026-08-31 06:26:5552.88112-0.7008370°24km/h19998m5.6m/s-50.3°C3.4%0hPa2.6V08:30:0001:37:4000:00:00
DM0DOS-112026-08-31 06:26:4452.88091-0.7018455°27km/h19937m4.2m/s-50.4°C3.4%0hPa2.6V08:30:0001:37:2800:00:00
DM0DOS-112026-08-31 06:26:3452.88068-0.7025143°20km/h19886m5.6m/s-50.3°C3.4%0hPa2.6V08:30:0001:37:1800:00:00
DM0DOS-112026-08-31 06:26:2452.88030-0.7030647°16km/h19836m6m/s-50.4°C3.4%0hPa2.7V08:30:0001:37:0800:00:00
DM0DOS-112026-08-31 06:26:1452.87999-0.7034234°18km/h19785m5.6m/s-50.1°C3.4%0hPa2.6V08:30:0001:36:5800:00:00
DM0DOS-112026-08-31 06:26:0452.87970-0.7037829°15km/h19735m4.6m/s-50.1°C3.4%0hPa2.7V08:30:0001:36:4800:00:00
DM0DOS-112026-08-31 06:25:5452.87953-0.7043680°11km/h19685m5m/s-49.9°C3.4%0hPa2.6V08:30:0001:36:3800:00:00
DM0DOS-112026-08-31 06:25:4452.87933-0.7049976°20km/h19636m5.1m/s-49.6°C3.3%0hPa2.6V08:30:0001:36:2800:00:00
DM0DOS-112026-08-31 06:25:3452.87918-0.7057369°26km/h19585m6.2m/s-49.7°C3.3%0hPa2.6V08:30:0001:36:1800:00:00
DM0DOS-112026-08-31 06:25:2452.87902-0.7066343°13km/h19534m3.5m/s-49.6°C3.3%0hPa2.7V08:30:0001:36:0800:00:00
DM0DOS-112026-08-31 06:25:1452.87884-0.7075763°27km/h19483m5.5m/s-49.3°C3.3%0hPa2.7V08:30:0001:35:5800:00:00
DM0DOS-112026-08-31 06:25:0452.87868-0.7082182°24km/h19434m5.6m/s-49°C3.2%0hPa2.6V08:30:0001:35:4800:00:00
DM0DOS-112026-08-31 06:24:5452.87844-0.7088654°7km/h19384m5.3m/s-49.2°C3.2%0hPa2.7V08:30:0001:35:3800:00:00
DM0DOS-112026-08-31 06:24:4452.87837-0.7092675°15km/h19334m5.6m/s-49°C3.2%0hPa2.7V08:30:0001:35:2800:00:00
DM0DOS-112026-08-31 06:24:3452.87822-0.7098675°16km/h19287m4.8m/s-48.9°C3.1%0hPa2.6V08:30:0001:35:1800:00:00
DM0DOS-112026-08-31 06:24:2452.87818-0.7105585°15km/h19239m5.7m/s-49.7°C3.3%0hPa2.7V08:30:0001:35:0800:00:00
DM0DOS-112026-08-31 06:24:1452.87803-0.7115581°35km/h19190m4.1m/s-50.1°C3.4%0hPa2.7V08:30:0001:34:5800:00:00
DM0DOS-112026-08-31 06:24:0452.87791-0.7128085°27km/h19141m4.6m/s-50°C3.4%0hPa2.6V08:30:0001:34:4800:00:00
DM0DOS-112026-08-31 06:23:5652.87779-0.7141378°31km/h19094m4.2m/s-50°C3.4%0hPa2.6V08:30:0001:34:3800:00:00
DM0DOS-112026-08-31 06:23:4452.87758-0.7156378°40km/h19043m5.1m/s-50°C0%0hPa2.7V08:30:0001:34:2800:00:00
DM0DOS-112026-08-31 06:23:3452.87738-0.7171375°35km/h18993m5.8m/s0°C0%0hPa2.6V00:00:0001:34:1800:00:00
DM0DOS-112026-08-31 06:23:2452.87712-0.7186380°40km/h18944m3.8m/s0°C0%0hPa2.6V00:00:0001:34:0800:00:00
DM0DOS-112026-08-31 06:23:1452.87672-0.7202865°40km/h18892m4.8m/s0°C0%0hPa2.7V00:00:0001:33:5800:00:00
DM0DOS-112026-08-31 06:23:0452.87632-0.7219665°46km/h18843m4.5m/s0°C0%0hPa2.7V00:00:0001:33:4800:00:00
DM0DOS-112026-08-31 06:22:5352.87581-0.7235463°40km/h18788m4.8m/s0°C0%0hPa2.7V00:00:0001:33:3700:00:00
DM0DOS-112026-08-31 06:22:4352.87537-0.7249856°37km/h18738m3.5m/s0°C0%0hPa2.6V00:00:0001:33:2700:00:00


GPX KML Map

© wettersonde.net (DO2JMG) - 2026  -  -